Time;durP1;ratioP1;P1;durP2;ratioP2;P2;SDS_P1;SDS_P2;PMS_P1;PMS_P2;Temp;Humidity;BMP_temperature;BMP_pressure;BME280_temperature;BME280_humidity;BME280_pressure;Samples;Min_cycle;Max_cycle;Signal;HPM_P1;HPM_P2
2022/11/18 00:01:07;;;;;;;0.90;0.70;;;5.50;91.40;;;;;;5109223;28;20192;-64
2022/11/18 00:03:35;;;;;;;1.67;0.70;;;5.50;91.10;;;;;;5102690;28;20232;-63
2022/11/18 00:06:02;;;;;;;0.80;0.80;;;5.50;90.90;;;;;;5086705;28;20209;-64
2022/11/18 00:08:29;;;;;;;1.80;0.80;;;5.50;90.80;;;;;;5093593;28;20667;-64
2022/11/18 00:10:57;;;;;;;3.03;0.90;;;5.50;90.60;;;;;;5102224;28;20197;-63
2022/11/18 00:16:12;;;;;;;0.60;0.60;;;5.50;90.70;;;;;;5092182;28;20188;-64
2022/11/18 00:18:39;;;;;;;0.60;0.60;;;5.50;90.70;;;;;;5090885;28;20538;-65
2022/11/18 00:21:09;;;;;;;0.90;0.80;;;5.50;90.70;;;;;;5094624;28;20209;-64
2022/11/18 00:23:37;;;;;;;1.23;0.90;;;5.50;90.70;;;;;;5101864;28;20269;-64
2022/11/18 00:26:05;;;;;;;1.00;0.83;;;5.60;90.80;;;;;;5075956;28;20567;-65
2022/11/18 00:28:32;;;;;;;0.80;0.80;;;5.50;90.80;;;;;;5085645;28;20232;-65
2022/11/18 00:31:03;;;;;;;1.03;1.00;;;5.60;90.70;;;;;;5086985;28;20347;-64
2022/11/18 00:33:32;;;;;;;0.70;0.70;;;5.60;90.50;;;;;;5090270;28;20225;-64
2022/11/18 00:35:59;;;;;;;0.60;0.60;;;5.60;89.80;;;;;;5067634;28;20283;-64
2022/11/18 00:38:27;;;;;;;0.70;0.70;;;5.50;89.50;;;;;;5070395;28;20206;-63
2022/11/18 00:41:01;;;;;;;1.33;1.00;;;5.60;89.10;;;;;;5093649;28;20199;-63
2022/11/18 00:43:28;;;;;;;3.20;1.00;;;5.50;88.80;;;;;;5073407;28;20220;-63
2022/11/18 00:45:55;;;;;;;0.93;0.77;;;5.50;89.20;;;;;;5085212;28;20668;-63
2022/11/18 00:48:22;;;;;;;0.97;0.70;;;5.50;88.90;;;;;;5096631;28;20203;-63
2022/11/18 00:50:52;;;;;;;1.10;1.00;;;5.50;89.10;;;;;;5084274;28;20240;-63
2022/11/18 00:53:20;;;;;;;0.90;0.90;;;5.50;89.40;;;;;;5092705;28;20193;-64
2022/11/18 00:55:47;;;;;;;1.00;0.90;;;5.50;88.50;;;;;;5090152;28;20199;-65
2022/11/18 00:58:14;;;;;;;1.40;1.30;;;5.50;88.20;;;;;;5078030;28;20250;-66
2022/11/18 01:00:41;;;;;;;1.80;1.47;;;5.40;88.00;;;;;;5093957;28;20975;-65
2022/11/18 01:03:09;;;;;;;2.07;1.23;;;5.40;88.20;;;;;;5073301;28;20242;-65
2022/11/18 01:05:36;;;;;;;0.80;0.80;;;5.40;88.80;;;;;;5086637;28;20227;-65
2022/11/18 01:08:05;;;;;;;0.80;0.80;;;5.40;88.70;;;;;;5097764;28;20192;-66
2022/11/18 01:10:35;;;;;;;1.10;1.00;;;5.40;88.60;;;;;;5094257;28;20202;-64
2022/11/18 01:13:21;;;;;;;1.40;0.73;;;5.40;88.10;;;;;;5074421;28;20190;-64
2022/11/18 01:15:50;;;;;;;1.00;1.00;;;5.40;88.20;;;;;;5103459;28;20579;-65
2022/11/18 01:18:19;;;;;;;0.80;0.80;;;5.50;88.50;;;;;;5076817;28;20201;-65
2022/11/18 01:20:47;;;;;;;0.70;0.70;;;5.50;88.20;;;;;;5071947;28;20194;-65
2022/11/18 01:23:16;;;;;;;0.90;0.90;;;5.50;88.50;;;;;;5074109;28;20277;-66
2022/11/18 01:25:45;;;;;;;0.90;0.90;;;5.60;89.00;;;;;;5079094;28;20218;-65
2022/11/18 01:28:12;;;;;;;1.07;1.07;;;5.60;89.10;;;;;;5057727;28;20724;-66
2022/11/18 01:30:41;;;;;;;0.83;0.83;;;5.60;89.40;;;;;;5102020;28;20204;-64
2022/11/18 01:33:09;;;;;;;2.17;0.83;;;5.60;89.20;;;;;;5097985;28;20194;-65
2022/11/18 01:35:36;;;;;;;1.40;1.10;;;5.60;89.30;;;;;;5087337;28;20197;-65
2022/11/18 01:38:04;;;;;;;1.30;1.20;;;5.70;89.00;;;;;;5081441;28;20226;-66
2022/11/18 01:40:34;;;;;;;2.30;1.47;;;5.70;89.60;;;;;;5084348;28;20198;-65
2022/11/18 01:43:01;;;;;;;1.63;1.53;;;5.60;90.00;;;;;;5078832;28;20209;-65
2022/11/18 01:45:33;;;;;;;2.23;1.90;;;5.60;90.30;;;;;;5100707;28;20293;-64
2022/11/18 01:48:07;;;;;;;1.83;1.50;;;5.50;90.50;;;;;;5074131;28;20198;-66
2022/11/18 01:50:38;;;;;;;4.03;1.60;;;5.50;90.80;;;;;;5076642;28;20194;-66
2022/11/18 01:53:11;;;;;;;1.43;1.33;;;5.40;90.80;;;;;;5095698;28;20266;-63
2022/11/18 01:55:47;;;;;;;1.47;1.37;;;5.30;90.90;;;;;;5076502;28;20202;-64
2022/11/18 01:58:22;;;;;;;1.37;1.27;;;5.30;91.00;;;;;;5092593;28;20238;-65
2022/11/18 02:00:49;;;;;;;1.70;1.53;;;5.30;91.00;;;;;;5088163;28;20190;-65
2022/11/18 02:03:17;;;;;;;1.77;1.67;;;5.30;91.00;;;;;;5075178;28;20198;-65
2022/11/18 02:05:47;;;;;;;2.00;1.60;;;5.30;91.10;;;;;;5089911;28;20203;-65
2022/11/18 02:08:15;;;;;;;1.60;1.50;;;5.30;91.20;;;;;;5091141;28;20240;-65
2022/11/18 02:10:44;;;;;;;1.70;1.60;;;5.30;91.20;;;;;;5091960;28;20221;-64
2022/11/18 02:13:12;;;;;;;1.37;1.17;;;5.30;91.20;;;;;;5079436;28;20267;-64
2022/11/18 02:15:53;;;;;;;1.30;1.20;;;5.30;91.20;;;;;;5081657;28;20234;-62
2022/11/18 02:18:30;;;;;;;1.60;1.40;;;5.30;91.30;;;;;;5081827;28;20214;-63
2022/11/18 02:21:10;;;;;;;3.30;1.80;;;5.40;91.30;;;;;;5083793;28;20206;-63
2022/11/18 02:24:20;;;;;;;1.80;1.70;;;5.40;91.40;;;;;;5093882;28;20583;-63
2022/11/18 02:27:18;;;;;;;1.80;1.70;;;5.40;91.30;;;;;;5100170;28;20233;-64
2022/11/18 02:29:55;;;;;;;1.40;1.30;;;5.40;91.30;;;;;;5099407;28;20203;-63
2022/11/18 02:32:29;;;;;;;1.30;1.20;;;5.40;91.40;;;;;;5102309;28;20261;-63
2022/11/18 02:35:01;;;;;;;1.37;1.27;;;5.50;91.40;;;;;;5090398;28;20238;-64
2022/11/18 02:37:34;;;;;;;0.93;0.93;;;5.50;91.40;;;;;;5097371;28;20570;-63
2022/11/18 02:40:07;;;;;;;1.60;1.50;;;5.50;91.50;;;;;;5091435;28;20194;-64
2022/11/18 02:42:36;;;;;;;1.47;1.37;;;5.60;91.50;;;;;;5076680;28;20198;-63
2022/11/18 02:45:10;;;;;;;1.50;1.40;;;5.60;91.50;;;;;;5098709;28;20215;-63
2022/11/18 02:47:42;;;;;;;1.10;1.10;;;5.60;91.50;;;;;;5083681;28;20551;-64
2022/11/18 02:50:14;;;;;;;2.47;1.70;;;5.60;91.50;;;;;;5093291;28;20273;-65
2022/11/18 02:52:42;;;;;;;1.47;1.30;;;5.60;91.60;;;;;;5094223;28;20224;-64
2022/11/18 02:55:12;;;;;;;1.87;1.77;;;5.70;91.70;;;;;;5095382;28;20217;-64
2022/11/18 02:57:41;;;;;;;1.63;1.53;;;5.70;91.70;;;;;;5096598;28;20222;-64
2022/11/18 03:00:11;;;;;;;2.10;1.77;;;5.70;91.70;;;;;;5100842;28;20292;-65
2022/11/18 03:02:43;;;;;;;2.40;1.90;;;5.70;91.80;;;;;;5085552;28;20197;-65
2022/11/18 03:05:16;;;;;;;2.43;2.10;;;5.60;91.80;;;;;;5099919;28;20226;-65
2022/11/18 03:07:48;;;;;;;2.87;2.10;;;5.60;91.80;;;;;;5099241;28;20192;-64
2022/11/18 03:10:16;;;;;;;2.67;2.40;;;5.60;91.90;;;;;;5098729;28;20277;-64
2022/11/18 03:12:49;;;;;;;3.50;2.37;;;5.60;92.00;;;;;;5087361;28;20509;-64
2022/11/18 03:15:27;;;;;;;6.83;2.60;;;5.60;92.10;;;;;;5082065;28;20195;-64
2022/11/18 03:18:00;;;;;;;2.67;2.47;;;5.50;92.10;;;;;;5088070;28;20239;-65
2022/11/18 03:20:31;;;;;;;2.90;2.40;;;5.50;92.20;;;;;;5095579;28;20276;-65
2022/11/18 03:23:06;;;;;;;2.87;2.63;;;5.50;92.30;;;;;;5092373;28;20743;-64
2022/11/18 03:25:37;;;;;;;4.07;2.40;;;5.40;92.30;;;;;;5077929;28;20204;-65
2022/11/18 03:28:14;;;;;;;2.10;1.90;;;5.30;92.40;;;;;;5074423;28;20345;-63
2022/11/18 03:30:50;;;;;;;1.73;1.63;;;5.40;92.50;;;;;;5085794;28;20548;-65
2022/11/18 03:33:22;;;;;;;2.40;2.13;;;5.40;92.50;;;;;;5079356;28;20530;-65
2022/11/18 03:35:52;;;;;;;1.60;1.50;;;5.40;92.50;;;;;;5087734;28;20232;-65
2022/11/18 03:38:25;;;;;;;2.90;2.40;;;5.50;92.50;;;;;;5089751;28;20367;-64
2022/11/18 03:40:56;;;;;;;1.70;1.60;;;5.50;92.50;;;;;;5081817;28;20198;-66
2022/11/18 03:43:27;;;;;;;2.23;2.00;;;5.50;92.60;;;;;;5080822;28;20202;-65
2022/11/18 03:46:01;;;;;;;3.10;2.17;;;5.60;92.60;;;;;;5077295;28;20672;-65
2022/11/18 03:48:34;;;;;;;2.27;2.07;;;5.60;92.60;;;;;;5080779;28;20696;-64
2022/11/18 03:51:06;;;;;;;2.40;2.10;;;5.60;92.60;;;;;;5081504;28;20189;-65
2022/11/18 03:53:36;;;;;;;2.47;1.93;;;5.60;92.60;;;;;;5079487;28;20186;-66
2022/11/18 03:56:09;;;;;;;2.80;2.50;;;5.60;92.60;;;;;;5089463;28;20190;-65
2022/11/18 03:58:42;;;;;;;2.73;2.53;;;5.60;92.60;;;;;;5084184;28;20681;-64
2022/11/18 04:01:17;;;;;;;2.40;2.20;;;5.60;92.60;;;;;;5082189;28;20240;-64
2022/11/18 04:03:44;;;;;;;2.30;2.10;;;5.60;92.60;;;;;;5081169;28;20313;-64
2022/11/18 04:06:26;;;;;;;3.10;2.50;;;5.60;92.60;;;;;;5088327;28;20767;-64
2022/11/18 04:08:58;;;;;;;2.70;2.50;;;5.60;92.60;;;;;;5088226;28;21201;-64
2022/11/18 04:14:27;;;;;;;2.70;2.53;;;5.60;92.60;;;;;;5021810;28;20560;-65
2022/11/18 04:16:55;;;;;;;3.93;3.23;;;5.60;92.60;;;;;;4992901;28;20660;-65
2022/11/18 04:19:22;;;;;;;3.10;2.47;;;5.60;92.60;;;;;;5034058;28;20260;-65
2022/11/18 04:21:50;;;;;;;2.50;2.30;;;5.60;92.60;;;;;;5090651;28;20209;-65
2022/11/18 04:24:17;;;;;;;2.67;2.47;;;5.70;92.70;;;;;;5092838;28;20550;-66
2022/11/18 04:26:44;;;;;;;3.30;3.00;;;5.60;92.60;;;;;;5071916;28;20240;-63
2022/11/18 04:29:11;;;;;;;2.90;2.60;;;5.70;92.70;;;;;;5090621;28;20203;-64
2022/11/18 04:31:38;;;;;;;3.13;2.50;;;5.70;92.70;;;;;;5091922;28;20199;-64
2022/11/18 04:34:06;;;;;;;1.90;1.80;;;5.60;92.70;;;;;;5089075;28;20273;-64
2022/11/18 04:36:33;;;;;;;2.33;2.13;;;5.60;92.70;;;;;;5092140;28;20222;-64
2022/11/18 04:39:01;;;;;;;1.97;1.87;;;5.70;92.70;;;;;;5090274;28;20653;-64
2022/11/18 04:44:11;;;;;;;2.20;2.00;;;5.70;92.60;;;;;;5087570;28;20256;-64
2022/11/18 04:46:40;;;;;;;2.90;2.20;;;5.70;92.40;;;;;;5087022;28;20267;-65
2022/11/18 04:49:10;;;;;;;1.73;1.63;;;5.70;92.30;;;;;;5092014;28;20196;-64
2022/11/18 04:51:37;;;;;;;3.03;2.03;;;5.70;92.30;;;;;;5069350;28;20226;-64
2022/11/18 04:54:05;;;;;;;2.13;1.87;;;5.70;92.40;;;;;;5093155;28;20199;-64
2022/11/18 04:56:32;;;;;;;3.57;2.03;;;5.70;92.30;;;;;;5090786;28;20221;-63
2022/11/18 04:59:04;;;;;;;3.40;2.10;;;5.80;92.40;;;;;;5091314;28;20187;-63
2022/11/18 05:01:31;;;;;;;2.33;2.13;;;5.80;92.40;;;;;;5090540;28;20244;-64
2022/11/18 05:04:00;;;;;;;3.60;1.80;;;5.80;92.40;;;;;;5091906;28;20670;-64
2022/11/18 05:06:29;;;;;;;2.00;1.87;;;5.80;92.40;;;;;;5087931;28;20203;-64
2022/11/18 05:08:58;;;;;;;3.00;2.53;;;5.80;92.40;;;;;;5088581;28;20365;-64
2022/11/18 05:14:11;;;;;;;2.73;2.50;;;5.80;92.40;;;;;;5088001;28;20183;-64
2022/11/18 05:16:38;;;;;;;2.67;2.40;;;5.80;92.40;;;;;;5087787;28;20251;-64
2022/11/18 05:19:06;;;;;;;3.47;2.00;;;5.70;92.20;;;;;;5087653;28;20221;-65
2022/11/18 05:21:34;;;;;;;2.27;1.60;;;5.70;91.50;;;;;;5089833;28;20251;-64
2022/11/18 05:24:02;;;;;;;1.23;1.13;;;5.60;90.60;;;;;;5085618;28;20240;-63
2022/11/18 05:26:30;;;;;;;3.03;2.30;;;5.60;90.40;;;;;;5089657;28;20242;-65
2022/11/18 05:28:57;;;;;;;4.40;2.90;;;5.60;90.40;;;;;;5090103;28;20188;-64
2022/11/18 05:31:24;;;;;;;1.97;1.80;;;5.60;90.00;;;;;;5072780;28;20663;-64
2022/11/18 05:33:51;;;;;;;3.00;2.13;;;5.60;90.10;;;;;;5078507;28;20197;-63
2022/11/18 05:36:22;;;;;;;1.87;1.73;;;5.60;90.20;;;;;;5078754;28;20288;-64
2022/11/18 05:38:50;;;;;;;2.63;2.20;;;5.60;90.40;;;;;;5088470;28;20275;-64
2022/11/18 05:43:59;;;;;;;4.97;3.00;;;5.60;90.80;;;;;;5092553;28;20197;-65
2022/11/18 05:46:27;;;;;;;4.03;2.77;;;5.60;91.00;;;;;;5086007;28;20756;-65
2022/11/18 05:48:54;;;;;;;3.27;2.60;;;5.60;91.20;;;;;;5086704;28;20219;-64
2022/11/18 05:51:21;;;;;;;2.30;2.10;;;5.60;91.80;;;;;;5089754;28;20244;-65
2022/11/18 05:53:52;;;;;;;3.70;2.30;;;5.50;91.40;;;;;;5092750;28;21027;-64
2022/11/18 05:56:23;;;;;;;2.70;2.40;;;5.60;91.40;;;;;;5092902;28;20229;-64
2022/11/18 05:58:50;;;;;;;2.57;1.93;;;5.60;91.20;;;;;;5081450;28;20284;-65
2022/11/18 06:01:21;;;;;;;2.20;2.00;;;5.60;90.80;;;;;;5094508;28;20201;-65
2022/11/18 06:03:48;;;;;;;3.07;1.97;;;5.50;90.70;;;;;;5098064;28;20325;-63
2022/11/18 06:06:19;;;;;;;2.97;2.60;;;5.60;90.70;;;;;;5112749;28;20210;-65
2022/11/18 06:08:52;;;;;;;5.97;2.40;;;5.60;90.60;;;;;;5105690;28;20201;-65
2022/11/18 06:11:20;;;;;;;4.13;2.33;;;5.60;90.10;;;;;;5109635;27;20714;-67
2022/11/18 06:13:51;;;;;;;3.63;2.40;;;5.60;90.00;;;;;;5103094;28;20286;-65
2022/11/18 06:16:25;;;;;;;3.50;1.83;;;5.60;89.10;;;;;;5096910;28;20690;-65
2022/11/18 06:18:52;;;;;;;3.20;1.63;;;5.60;86.90;;;;;;5110756;28;20273;-65
2022/11/18 06:21:20;;;;;;;1.30;1.20;;;5.60;86.00;;;;;;5097610;28;20209;-65
2022/11/18 06:23:47;;;;;;;1.20;1.10;;;5.60;85.40;;;;;;5106823;28;20205;-66
2022/11/18 06:26:16;;;;;;;1.47;0.67;;;5.60;84.90;;;;;;5096256;28;20241;-66
2022/11/18 06:28:45;;;;;;;1.10;0.93;;;5.60;85.00;;;;;;5098694;27;20895;-64
2022/11/18 06:31:13;;;;;;;1.37;1.13;;;5.70;83.80;;;;;;5107466;27;20198;-65
2022/11/18 06:33:40;;;;;;;2.03;1.20;;;5.70;83.30;;;;;;5104584;27;20198;-65
2022/11/18 06:36:07;;;;;;;3.47;1.87;;;5.70;83.30;;;;;;5093466;28;20185;-66
2022/11/18 06:38:35;;;;;;;4.63;2.07;;;5.70;83.60;;;;;;5092725;28;20250;-64
2022/11/18 06:41:02;;;;;;;2.03;1.40;;;5.80;83.90;;;;;;5110177;28;20660;-64
2022/11/18 06:43:40;;;;;;;2.20;1.70;;;5.80;83.30;;;;;;5104904;27;20203;-64
2022/11/18 06:48:55;;;;;;;1.23;0.90;;;5.70;82.10;;;;;;5098783;28;20650;-64
2022/11/18 06:51:22;;;;;;;0.93;0.93;;;5.70;82.60;;;;;;5111151;28;20246;-64
2022/11/18 06:53:49;;;;;;;1.40;1.27;;;5.70;82.60;;;;;;5088530;28;20306;-64
2022/11/18 06:56:18;;;;;;;1.47;1.37;;;5.60;82.20;;;;;;5104087;28;20205;-65
2022/11/18 06:58:47;;;;;;;2.23;1.70;;;5.60;81.80;;;;;;5107171;27;20196;-65
2022/11/18 07:01:15;;;;;;;2.33;1.30;;;5.50;81.50;;;;;;5104928;28;20231;-64
2022/11/18 07:03:44;;;;;;;2.70;1.90;;;5.60;82.00;;;;;;5099065;28;20314;-64
2022/11/18 07:06:12;;;;;;;2.30;1.60;;;5.50;81.50;;;;;;5100486;28;20206;-64
2022/11/18 07:08:40;;;;;;;3.47;1.40;;;5.60;82.10;;;;;;5107079;27;20237;-65
2022/11/18 07:11:13;;;;;;;2.40;1.50;;;5.60;82.10;;;;;;5089426;28;20557;-65
2022/11/18 07:13:40;;;;;;;4.20;2.10;;;5.60;81.50;;;;;;5097647;28;20738;-63
2022/11/18 07:16:10;;;;;;;6.80;1.93;;;5.60;81.50;;;;;;5088902;28;20213;-64
2022/11/18 07:18:39;;;;;;;5.70;2.37;;;5.60;81.80;;;;;;5098257;28;20240;-64
2022/11/18 07:21:09;;;;;;;4.37;2.00;;;5.70;82.10;;;;;;5090423;28;20225;-63
2022/11/18 07:23:36;;;;;;;2.67;1.40;;;5.70;81.70;;;;;;5103347;28;20193;-64
2022/11/18 07:26:03;;;;;;;2.30;1.30;;;5.70;81.20;;;;;;5091133;28;20199;-64
2022/11/18 07:28:31;;;;;;;3.00;1.17;;;5.70;81.30;;;;;;5100331;28;20613;-64
2022/11/18 07:31:02;;;;;;;1.23;0.93;;;5.70;82.30;;;;;;5102919;27;20346;-64
2022/11/18 07:33:31;;;;;;;1.90;0.90;;;5.70;81.30;;;;;;5109426;27;20403;-64
2022/11/18 07:36:01;;;;;;;0.93;0.70;;;5.70;79.60;;;;;;5107704;28;20230;-64
2022/11/18 07:38:29;;;;;;;1.43;0.73;;;5.70;79.10;;;;;;5100317;28;20559;-64
2022/11/18 07:40:56;;;;;;;0.67;0.67;;;5.70;78.80;;;;;;5106739;27;20239;-64
2022/11/18 07:43:23;;;;;;;0.60;0.60;;;5.70;77.30;;;;;;5089928;28;20204;-65
2022/11/18 07:45:50;;;;;;;0.70;0.70;;;5.70;77.20;;;;;;5107633;28;20276;-64
2022/11/18 07:48:17;;;;;;;1.13;0.80;;;5.70;77.10;;;;;;5099135;28;20233;-64
2022/11/18 07:50:45;;;;;;;2.30;0.90;;;5.70;76.40;;;;;;5086403;28;20201;-64
2022/11/18 07:53:12;;;;;;;1.03;0.93;;;5.70;76.50;;;;;;5105080;28;20254;-63
2022/11/18 07:55:39;;;;;;;1.13;0.83;;;5.70;76.30;;;;;;5106043;28;20308;-64
2022/11/18 07:58:06;;;;;;;0.50;0.50;;;5.70;75.70;;;;;;5104662;28;20273;-64
2022/11/18 08:00:33;;;;;;;0.63;0.63;;;5.70;75.90;;;;;;5085754;28;20228;-64
2022/11/18 08:03:00;;;;;;;0.50;0.50;;;5.70;75.70;;;;;;5083825;28;20197;-64
2022/11/18 08:05:27;;;;;;;0.40;0.40;;;5.70;75.70;;;;;;5102487;28;20739;-64
2022/11/18 08:07:55;;;;;;;1.70;0.60;;;5.70;75.90;;;;;;5102227;28;20254;-64
2022/11/18 08:10:23;;;;;;;3.43;1.23;;;5.70;76.10;;;;;;5103192;28;20608;-64
2022/11/18 08:12:50;;;;;;;1.10;1.00;;;5.80;74.90;;;;;;5101776;28;20196;-64
2022/11/18 08:15:17;;;;;;;1.10;1.00;;;5.70;74.90;;;;;;5078910;28;20536;-64
2022/11/18 08:17:44;;;;;;;1.10;1.00;;;5.70;75.20;;;;;;5098626;28;20295;-64
2022/11/18 08:20:12;;;;;;;2.63;1.47;;;5.70;75.90;;;;;;5089946;28;20239;-65
2022/11/18 08:22:39;;;;;;;1.57;1.10;;;5.60;76.40;;;;;;5094869;28;20199;-64
2022/11/18 08:25:08;;;;;;;2.03;1.60;;;5.60;77.20;;;;;;5104309;28;20656;-64
2022/11/18 08:27:41;;;;;;;1.50;1.40;;;5.60;78.30;;;;;;5094595;28;20220;-65
2022/11/18 08:30:09;;;;;;;1.30;1.20;;;5.40;78.80;;;;;;5093781;28;20248;-65
2022/11/18 08:32:36;;;;;;;1.27;1.17;;;5.40;79.50;;;;;;5102761;28;20196;-65
2022/11/18 08:35:04;;;;;;;1.13;1.03;;;5.40;80.20;;;;;;5102370;28;20359;-63
2022/11/18 08:37:31;;;;;;;1.53;1.27;;;5.30;80.30;;;;;;5104866;28;20200;-64
2022/11/18 08:39:58;;;;;;;1.30;1.20;;;5.30;80.70;;;;;;5097243;28;20215;-64
2022/11/18 08:42:26;;;;;;;1.50;1.30;;;5.20;80.50;;;;;;5088300;28;20253;-63
2022/11/18 08:44:53;;;;;;;0.93;0.93;;;5.20;80.60;;;;;;5087649;28;20383;-65
2022/11/18 08:47:20;;;;;;;1.27;1.10;;;5.20;80.50;;;;;;5103155;28;20290;-64
2022/11/18 08:49:47;;;;;;;6.00;1.30;;;5.20;80.50;;;;;;5101301;28;20196;-64
2022/11/18 08:52:14;;;;;;;0.97;0.90;;;5.10;80.40;;;;;;5098902;28;20667;-65
2022/11/18 08:54:41;;;;;;;1.20;1.10;;;5.10;80.60;;;;;;5100845;28;20241;-64
2022/11/18 08:57:08;;;;;;;0.83;0.77;;;5.10;81.00;;;;;;5102590;28;20211;-65
2022/11/18 08:59:37;;;;;;;0.93;0.93;;;5.10;81.40;;;;;;5088187;28;20696;-65
2022/11/18 09:02:04;;;;;;;2.30;0.80;;;5.20;81.80;;;;;;5095909;28;20598;-65
2022/11/18 09:04:31;;;;;;;0.80;0.80;;;5.20;81.90;;;;;;5105968;27;21510;-66
2022/11/18 09:06:58;;;;;;;1.57;0.87;;;5.20;82.20;;;;;;5101925;27;20309;-63
2022/11/18 09:09:40;;;;;;;1.00;1.00;;;5.20;82.10;;;;;;5099945;27;20686;-64
2022/11/18 09:12:08;;;;;;;1.30;1.20;;;5.30;81.90;;;;;;5102727;28;20208;-63
2022/11/18 09:14:35;;;;;;;1.27;1.17;;;5.30;82.00;;;;;;5083951;28;20276;-64
2022/11/18 09:17:03;;;;;;;0.83;0.83;;;5.50;82.20;;;;;;5094311;28;20192;-64
2022/11/18 09:19:30;;;;;;;1.00;1.00;;;5.80;82.10;;;;;;5096221;28;20245;-63
2022/11/18 09:21:57;;;;;;;1.17;1.07;;;6.00;81.70;;;;;;5095876;28;20187;-64
2022/11/18 09:24:24;;;;;;;0.90;0.90;;;6.30;81.50;;;;;;5090214;28;20619;-64
2022/11/18 09:26:52;;;;;;;0.80;0.80;;;6.40;80.60;;;;;;5099321;28;20204;-63
2022/11/18 09:29:24;;;;;;;0.80;0.80;;;6.50;80.30;;;;;;5102715;28;20532;-64
2022/11/18 09:31:51;;;;;;;0.80;0.80;;;6.50;80.20;;;;;;5097708;28;20280;-64
2022/11/18 09:34:19;;;;;;;0.80;0.80;;;6.50;79.10;;;;;;5099900;28;20606;-63
2022/11/18 09:36:46;;;;;;;0.80;0.80;;;6.40;78.10;;;;;;5100223;28;20188;-64
2022/11/18 09:39:14;;;;;;;1.70;1.10;;;6.40;77.50;;;;;;5097984;28;20216;-64
2022/11/18 09:41:45;;;;;;;0.80;0.80;;;6.40;78.00;;;;;;5099761;28;20245;-64
2022/11/18 09:44:44;;;;;;;0.70;0.70;;;6.50;77.50;;;;;;5094218;28;20217;-65
2022/11/18 09:47:24;;;;;;;0.60;0.60;;;6.60;77.40;;;;;;5092963;28;20210;-65
2022/11/18 09:49:56;;;;;;;0.50;0.50;;;6.90;77.40;;;;;;5101256;28;20194;-63
2022/11/18 09:52:27;;;;;;;2.47;0.80;;;7.20;77.20;;;;;;5094361;28;20580;-64
2022/11/18 09:54:54;;;;;;;1.43;1.00;;;7.60;76.90;;;;;;5099048;28;20285;-63
2022/11/18 09:57:24;;;;;;;1.03;1.00;;;8.10;75.20;;;;;;5091711;28;20203;-63
2022/11/18 09:59:52;;;;;;;1.60;1.10;;;8.40;73.20;;;;;;5085235;28;20344;-65
2022/11/18 10:02:39;;;;;;;1.20;1.10;;;8.70;73.00;;;;;;5083355;28;20205;-65
2022/11/18 10:05:16;;;;;;;1.37;1.27;;;8.90;72.30;;;;;;5094794;28;20631;-64
2022/11/18 10:07:54;;;;;;;1.73;1.63;;;9.00;72.30;;;;;;5098937;28;20196;-64
2022/11/18 10:10:27;;;;;;;1.90;1.50;;;8.60;71.20;;;;;;5080091;28;20208;-63
2022/11/18 10:13:00;;;;;;;1.83;1.50;;;8.30;72.40;;;;;;5098503;28;20258;-64
2022/11/18 10:15:33;;;;;;;1.40;1.30;;;8.20;72.20;;;;;;5105559;28;20268;-64
2022/11/18 10:18:11;;;;;;;1.83;1.30;;;7.90;72.70;;;;;;5088543;28;20212;-64
2022/11/18 10:20:51;;;;;;;1.67;0.97;;;7.50;72.80;;;;;;5095226;28;20272;-64
2022/11/18 10:23:24;;;;;;;1.50;1.17;;;7.20;73.80;;;;;;5096801;28;20202;-63
2022/11/18 10:25:53;;;;;;;3.07;1.53;;;6.90;74.40;;;;;;5104592;28;20772;-63
2022/11/18 10:28:23;;;;;;;2.00;1.17;;;6.80;75.10;;;;;;5106014;28;20305;-65
2022/11/18 10:30:50;;;;;;;6.70;3.60;;;6.70;75.60;;;;;;5104562;28;20278;-64
2022/11/18 10:33:28;;;;;;;4.17;2.90;;;6.90;75.90;;;;;;5104430;28;20226;-64
2022/11/18 10:36:24;;;;;;;5.03;2.10;;;7.00;76.10;;;;;;5083464;28;20196;-64
2022/11/18 10:39:06;;;;;;;3.10;1.53;;;7.20;76.20;;;;;;5086114;28;20613;-64
2022/11/18 10:41:48;;;;;;;3.73;1.30;;;7.30;75.50;;;;;;5109671;28;20188;-64
2022/11/18 10:44:37;;;;;;;1.80;1.33;;;7.50;74.00;;;;;;5101049;28;20192;-63
2022/11/18 10:47:29;;;;;;;2.27;1.40;;;7.50;72.20;;;;;;5096958;28;20699;-65
2022/11/18 10:49:58;;;;;;;1.73;1.30;;;7.40;71.40;;;;;;5103878;28;20199;-62
2022/11/18 10:52:28;;;;;;;1.23;1.13;;;7.30;70.90;;;;;;5105340;28;20187;-65
2022/11/18 10:55:23;;;;;;;1.50;1.40;;;7.20;71.80;;;;;;5105949;28;20371;-65
2022/11/18 10:57:58;;;;;;;2.03;1.30;;;7.10;71.80;;;;;;5091440;28;20244;-63
2022/11/18 11:00:43;;;;;;;1.50;1.40;;;7.10;71.80;;;;;;5108016;28;20182;-64
2022/11/18 11:03:33;;;;;;;2.23;1.30;;;7.00;72.40;;;;;;5105431;28;20195;-64
2022/11/18 11:06:30;;;;;;;2.47;1.53;;;6.90;72.60;;;;;;5103205;28;20194;-63
2022/11/18 11:09:01;;;;;;;6.57;3.83;;;6.90;73.00;;;;;;5106492;27;20293;-65
2022/11/18 11:11:31;;;;;;;7.80;4.90;;;6.80;73.10;;;;;;5103200;28;20226;-64
2022/11/18 11:14:20;;;;;;;5.90;2.87;;;6.70;73.30;;;;;;5098984;28;20220;-64
2022/11/18 11:16:54;;;;;;;2.13;1.80;;;6.70;73.80;;;;;;5104205;28;20236;-64
2022/11/18 11:19:25;;;;;;;2.10;1.70;;;6.60;72.50;;;;;;5099795;28;20216;-64
2022/11/18 11:21:52;;;;;;;2.43;1.80;;;6.50;72.80;;;;;;5105864;28;20354;-64
2022/11/18 11:24:24;;;;;;;2.37;1.67;;;6.40;73.10;;;;;;5076639;28;20206;-63
2022/11/18 11:26:58;;;;;;;2.87;1.70;;;6.40;73.80;;;;;;5108883;27;20198;-64
2022/11/18 11:29:48;;;;;;;2.77;2.30;;;6.30;74.30;;;;;;5108012;28;20237;-64
2022/11/18 11:32:26;;;;;;;4.23;1.90;;;6.30;74.90;;;;;;5088676;28;20598;-64
2022/11/18 11:35:00;;;;;;;1.83;1.50;;;6.30;75.30;;;;;;5105871;28;20189;-65
2022/11/18 11:37:35;;;;;;;2.97;1.80;;;6.30;75.90;;;;;;5106226;28;20336;-65
2022/11/18 11:40:20;;;;;;;4.00;2.70;;;6.30;76.10;;;;;;5106225;28;20584;-64
2022/11/18 11:42:58;;;;;;;6.80;3.40;;;6.30;76.10;;;;;;5102372;28;20232;-65
2022/11/18 11:45:32;;;;;;;8.10;2.70;;;6.10;74.40;;;;;;5106666;28;20678;-63
2022/11/18 11:48:23;;;;;;;3.87;2.07;;;6.00;74.00;;;;;;5105650;28;20204;-64
2022/11/18 11:50:54;;;;;;;4.17;2.23;;;6.00;74.00;;;;;;5103256;28;20190;-63
2022/11/18 11:53:36;;;;;;;3.57;2.00;;;6.00;74.00;;;;;;5105681;27;20198;-64
2022/11/18 11:56:13;;;;;;;3.43;1.97;;;6.10;73.80;;;;;;5104998;28;20187;-64
2022/11/18 11:58:57;;;;;;;3.83;2.07;;;6.10;73.90;;;;;;5101113;28;20667;-65
2022/11/18 12:01:31;;;;;;;8.50;3.80;;;6.00;75.30;;;;;;5096393;28;20535;-65
2022/11/18 12:04:08;;;;;;;23.40;8.20;;;5.90;74.50;;;;;;5103087;28;20243;-63
2022/11/18 12:06:35;;;;;;;12.27;5.27;;;5.90;75.80;;;;;;5084669;28;20205;-64
2022/11/18 12:09:08;;;;;;;19.33;7.97;;;5.90;75.40;;;;;;5101211;28;20204;-64
2022/11/18 12:11:43;;;;;;;27.37;10.23;;;5.80;75.30;;;;;;5107660;28;20196;-65
2022/11/18 12:14:21;;;;;;;16.90;6.90;;;5.80;75.50;;;;;;5102778;28;20540;-64
2022/11/18 12:16:53;;;;;;;11.47;6.63;;;5.80;75.50;;;;;;5102780;28;20185;-64
2022/11/18 12:19:23;;;;;;;7.97;3.83;;;5.80;75.40;;;;;;5092863;28;20277;-64
2022/11/18 12:21:56;;;;;;;6.30;3.00;;;5.80;75.50;;;;;;5100947;27;20789;-65
2022/11/18 12:24:32;;;;;;;2.60;2.00;;;5.80;75.40;;;;;;5085679;28;20682;-63
2022/11/18 12:27:02;;;;;;;3.37;2.63;;;5.80;75.50;;;;;;5095101;28;20197;-63
2022/11/18 12:29:40;;;;;;;4.27;2.73;;;5.80;75.70;;;;;;5105860;27;20216;-64
2022/11/18 12:32:28;;;;;;;15.43;8.57;;;5.80;75.80;;;;;;5099837;28;20624;-64
2022/11/18 12:35:05;;;;;;;9.07;5.43;;;5.90;75.70;;;;;;5088873;28;20235;-64
2022/11/18 12:37:48;;;;;;;4.47;3.47;;;5.80;75.60;;;;;;5102817;28;20206;-64
2022/11/18 12:40:37;;;;;;;2.40;2.20;;;5.80;75.70;;;;;;5089925;28;20225;-64
2022/11/18 12:45:58;;;;;;;1.40;1.30;;;5.80;75.80;;;;;;5104717;28;20301;-63
2022/11/18 12:48:31;;;;;;;1.80;1.70;;;5.90;76.20;;;;;;5079870;28;20215;-65
2022/11/18 12:50:59;;;;;;;3.10;1.90;;;6.00;76.40;;;;;;5095238;28;20195;-65
2022/11/18 12:53:37;;;;;;;6.97;2.60;;;6.00;75.90;;;;;;5093472;28;20199;-64
2022/11/18 12:56:20;;;;;;;5.80;3.20;;;6.00;76.10;;;;;;5105050;28;20242;-63
2022/11/18 12:58:50;;;;;;;4.83;2.43;;;6.00;76.20;;;;;;5100712;27;20219;-64
2022/11/18 13:01:19;;;;;;;4.23;2.67;;;6.00;75.50;;;;;;5082562;28;20230;-64
2022/11/18 13:03:46;;;;;;;5.80;2.80;;;6.00;75.30;;;;;;5095630;28;20269;-64
2022/11/18 13:06:24;;;;;;;4.37;2.10;;;6.00;75.10;;;;;;5098348;28;20264;-64
2022/11/18 13:08:54;;;;;;;4.03;1.90;;;6.00;74.80;;;;;;5100123;28;20285;-63
2022/11/18 13:19:55;;;;;;;1.20;1.10;;;5.90;73.60;;;;;;5095099;28;20267;-64
2022/11/18 13:25:23;;;;;;;1.47;1.30;;;5.70;71.30;;;;;;5102101;28;20208;-63
2022/11/18 13:27:59;;;;;;;2.73;1.93;;;5.70;70.80;;;;;;5101318;28;20680;-64
2022/11/18 13:30:30;;;;;;;4.33;1.50;;;5.60;71.00;;;;;;5102568;28;20226;-64
2022/11/18 13:32:59;;;;;;;1.60;1.50;;;5.60;71.40;;;;;;5077684;28;20206;-63
2022/11/18 13:35:30;;;;;;;1.97;1.40;;;5.60;71.80;;;;;;5104976;28;20199;-63
2022/11/18 13:37:58;;;;;;;1.40;1.30;;;5.60;72.10;;;;;;5104343;28;20184;-64
2022/11/18 13:40:28;;;;;;;1.70;1.30;;;5.50;72.10;;;;;;5096037;28;20192;-64
2022/11/18 13:42:56;;;;;;;1.60;1.50;;;5.50;72.10;;;;;;5096427;28;20198;-63
2022/11/18 13:45:27;;;;;;;4.87;2.40;;;5.60;72.40;;;;;;5104494;28;20200;-64
2022/11/18 13:48:00;;;;;;;3.07;2.03;;;5.50;72.40;;;;;;5093095;28;20198;-65
2022/11/18 13:50:33;;;;;;;1.97;1.77;;;5.50;72.60;;;;;;5096509;28;20189;-64